Tiempo atmosférico en la estación meteorológica de Marbella, Málaga (2 m.)



Fecha
DESCASC
Temp. máxima en grados centígrados (hora)
DESCASC
Temp. mínima en grados centígrados (hora)
DESCASC
Temp. media en grados centígrados
DESCASC
Racha de viento máxima en m/sg (hora)
DESCASC
Velocidad máxima media en intervalos de 10 minutos(hora)
DESCASC
Precipitaciones diarias en mm
DESCASC
Precipitaciones de 00:00 a 06:00 en mm
DESCASC
Precipitaciones de 06:00 a 12:00 en mm
DESCASC
Precipitaciones de 12:00 a 18:00 en mm
DESCASC
Precipitaciones de 18:00 a 24:00 en mm
DESCASC
16-04-2019 19.8 (13:00) 13.4 (07:40) 16.6 11.39 (00:10) 9.17 (00:40) 0 0 0 0 0
15-04-2019 21.5 (17:30) 15.3 (08:00) 18.4 15 (20:30) 11.94 (21:20) 0 0 0 0 0
14-04-2019 20.7 (15:10) 14.5 (00:00) 17.6 6.11 (20:40) 5 (20:20) 0 0 0 0 0
13-04-2019 19.3 (09:20) 13.4 (00:00) 16.3 8.33 (17:20) 6.39 (17:20) 0 0 0 0 0
12-04-2019 21.3 (10:50) 13 (00:00) 17.1 7.22 (18:30) 5.56 (17:20) 0 0 0 0 0
11-04-2019 18.1 (09:20) 12.5 (00:00) 15.3 12.78 (17:40) 9.17 (17:20) 0 0 0 0 0
10-04-2019 21 (19:40) 13 (00:00) 17 11.94 (21:30) 9.72 (21:30) 0 0 0 0 0
09-04-2019 17.4 (17:40) 11.6 (00:00) 14.5 15.28 (18:10) 12.22 (17:50) 0 0 0 0 0
08-04-2019 17.5 (16:40) 14.7 (00:00) 16.1 13.61 (19:20) 11.39 (19:20) 0 0 0 0 0
07-04-2019 16.4 (16:40) 12.7 (00:00) 14.5 16.11 (18:40) 13.61 (02:20) 0 0 0 0 0
06-04-2019 15.3 (19:50) 12.4 (00:00) 13.8 18.61 (16:10) 15.56 (16:10) 0.2 0 0 0.2 0
05-04-2019 15.9 (17:20) 13.1 (00:00) 14.5 18.06 (09:00) 15 (09:40) 5 0 3 2 0
04-04-2019 17.6 (11:10) 12.6 (00:00) 15.1 20 (22:50) 16.67 (22:50) 0 0 0 0 0
03-04-2019 22.3 (18:40) 12.9 (00:00) 17.6 10.56 (20:40) 8.06 (20:40) 0 0 0 0 0
02-04-2019 19.1 (09:50) 12.7 (00:00) 15.9 6.39 (18:50) 5.56 (18:20) 0 0 0 0 0
01-04-2019 20.4 (19:00) 13.4 (00:00) 16.9 7.78 (13:40) 6.11 (13:50) 3.4 0 0.8 2.6 0
31-03-2019 16.4 (17:50) 12.7 (00:00) 14.5 10.28 (01:30) 8.61 (01:40) 15 9 6 0 0
30-03-2019 15.9 (10:50) 14.5 (00:00) 15.2 12.5 (09:10) 10.28 (09:10) 1.8 0 0 0 1.8
29-03-2019 16.6 (16:00) 14.7 (00:00) 15.7 13.06 (02:10) 10.83 (02:10) 0 0 0 0 0
28-03-2019 16.5 (16:10) 14.4 (00:00) 15.4 13.33 (11:30) 11.39 (11:20) 0 0 0 0 0
27-03-2019 16.6 (16:50) 14.7 (00:00) 15.7 18.89 (06:00) 15.28 (06:00) 0 0 0 0 0
26-03-2019 20.9 (13:00) 14.7 (00:00) 17.8 14.44 (23:59) 8.89 (23:50) 0 0 0 0 0
25-03-2019 19.2 (15:30) 14.2 (00:00) 16.7 8.33 (14:00) 5.56 (11:50) 0 0 0 0 0
24-03-2019 17.3 (15:10) 15.4 (00:00) 16.3 12.78 (09:30) 10.28 (09:30) 0.2 0 0 0.2 0
23-03-2019 16.9 (13:00) 13.9 (00:00) 15.4 15 (14:20) 11.94 (14:20) 0 0 0 0 0
22-03-2019 16.2 (14:50) 13.5 (00:00) 14.9 12.78 (02:10) 10.28 (02:10) 0 0 0 0 0
21-03-2019 16 (17:10) 11.8 (00:00) 13.9 14.17 (09:20) 11.67 (02:20) 1.8 1.8 0 0 0
20-03-2019 16.3 (13:00) 13 (00:00) 14.6 14.44 (23:20) 11.39 (23:20) 3.2 0 0 0 3.2
19-03-2019 17.9 (19:00) 14.7 (00:00) 16.3 11.67 (23:50) 10.28 (23:59) 0 0 0 0 0

Gráficas

Temp. máximas Temp. mínimas Temp. medias Precipitaciones Rachas de viento máximas Velocidades máximas media en intervalos de 10 minutos

Datos horarios

Fecha y hora oficial Temperatura (ºC) Velocidad del viento (km/h) Dirección del viento Racha (km/h) Dirección de racha Precipitación (mm) Presión (hPa) Tendencia (hPa) Humedad (%)
2019-04-17 23:00:00 16.2 21 Oeste 24 Sudoeste 0 -- -- 87
2019-04-17 22:00:00 16.2 15 Oeste 23 Sudoeste 0 -- -- 88
2019-04-17 21:00:00 16.4 7 Oeste 16 Sudoeste 0 -- -- 86
2019-04-17 20:00:00 16.6 10 Oeste 12 Oeste 0 -- -- 85
2019-04-17 19:00:00 16.8 8 Sur 15 Sudoeste 0 -- -- 82
2019-04-17 18:00:00 17 5 Sur 10 Sudoeste 0 -- -- 79
2019-04-17 17:00:00 17.5 3 Oeste 9 Sudoeste 0 -- -- 76
2019-04-17 16:00:00 17.4 5 Este 20 Este 0 -- -- 75
2019-04-17 15:00:00 17.6 14 Este 32 Este 0 -- -- 74
2019-04-17 14:00:00 17.3 24 Nordeste 36 Este 0 -- -- 78
2019-04-17 13:00:00 16.9 27 Este 33 Este 0 -- -- 80
2019-04-17 12:00:00 17.1 22 Este 32 Este 0 -- -- 80
2019-04-17 11:00:00 17.2 7 Este 18 Este 0 -- -- 80
2019-04-17 10:00:00 17.2 13 Este 22 Nordeste 0 -- -- 76
2019-04-17 09:00:00 16.8 5 Nordeste 12 Nordeste 0 -- -- 76
2019-04-17 08:00:00 16 9 Nordeste 19 Nordeste 0 -- -- 78
2019-04-17 07:00:00 16.1 12 Nordeste 19 Nordeste 0 -- -- 76
2019-04-17 06:00:00 16.2 10 Nordeste 21 Nordeste 0 -- -- 74
2019-04-17 05:00:00 16.4 14 Nordeste 24 Nordeste 0 -- -- 74
2019-04-17 04:00:00 16.4 14 Nordeste 26 Nordeste 0 -- -- 76
2019-04-17 03:00:00 16.5 16 Nordeste 27 Nordeste 0 -- -- 79
2019-04-17 02:00:00 16.8 18 Nordeste 28 Nordeste 0 -- -- 78
2019-04-17 01:00:00 17.1 18 Nordeste 25 Norte 0 -- -- 75
2019-04-17 00:00:00 17 12 Nordeste 23 Norte 0 -- -- 72
2019-04-16 23:00:00 16.9 14 Nordeste 19 Nordeste 0 -- -- 78
2019-04-16 22:00:00 17.5 17 Este 19 Este 0 -- -- 75
2019-04-16 21:00:00 17.7 15 Este 18 Este 0 -- -- 79
2019-04-16 20:00:00 18.8 14 Este 18 Este 0 -- -- 76
2019-04-16 19:00:00 18.8 14 Nordeste 21 Este 0 -- -- 77
2019-04-16 18:00:00 19 18 Este 23 Este 0 -- -- 76
2019-04-16 17:00:00 19.2 19 Este 22 Este 0 -- -- 72
2019-04-16 16:00:00 19.3 15 Este 18 Este 0 -- -- 74
2019-04-16 15:00:00 19.4 5 Sudeste 8 Sur 0 -- -- 68
2019-04-16 14:00:00 18.8 5 Sur 8 Sur 0 -- -- 74
2019-04-16 13:00:00 19.8 0 Calma 17 Sudoeste 0 -- -- 67
2019-04-16 12:00:00 16.9 13 Sudoeste 17 Sudoeste 0 -- -- 80
2019-04-16 11:00:00 16.6 11 Sudoeste 15 Sudoeste 0 -- -- 79
2019-04-16 10:00:00 16.4 10 Oeste 13 Oeste 0 -- -- 81
2019-04-16 09:00:00 16.4 5 Sudoeste 15 Sur 0 -- -- 80
2019-04-16 08:00:00 13.7 4 Noroeste 6 Oeste 0 -- -- 85
2019-04-16 07:00:00 13.8 4 Oeste 7 Sudoeste 0 -- -- 85
2019-04-16 06:00:00 14.1 2 Norte 7 Noroeste 0 -- -- 83
2019-04-16 05:00:00 14.7 3 Oeste 34 Oeste 0 -- -- 83
2019-04-16 04:00:00 15.7 29 Oeste 35 Oeste 0 -- -- 84
2019-04-16 03:00:00 15.9 28 Oeste 39 Oeste 0 -- -- 82
2019-04-16 02:00:00 16.2 29 Sudoeste 36 Sudoeste 0 -- -- 81
2019-04-16 01:00:00 16.4 26 Oeste 41 Oeste 0 -- -- 80
2019-04-16 00:00:00 16.9 35 Oeste 44 Sudoeste 0 -- -- 80
2019-04-15 23:00:00 17.3 25 Oeste 46 Sudoeste 0 -- -- 80
2019-04-15 22:00:00 18 26 Oeste 53 Sudoeste 0 -- -- 76
2019-04-15 21:00:00 18.6 25 Oeste 54 Sudoeste 0 -- -- 73
2019-04-15 20:00:00 19.6 24 Oeste 50 Sur 0 -- -- 64
2019-04-15 19:00:00 19.5 33 Sudoeste 52 Oeste 0 -- -- 68
2019-04-15 18:00:00 20.2 24 Oeste 33 Oeste 0 -- -- 65
2019-04-15 17:00:00 20.1 7 Oeste 18 Oeste 0 -- -- 66
2019-04-15 16:00:00 19.1 16 Oeste 17 Oeste 0 -- -- 79
2019-04-15 15:00:00 19.2 8 Sudoeste 10 Sudoeste 0 -- -- 79
2019-04-15 14:00:00 18.6 8 Sudoeste 12 Oeste 0 -- -- 79
2019-04-15 13:00:00 18.1 11 Oeste 15 Sudoeste 0 -- -- 79
2019-04-15 12:00:00 18.5 8 Sudoeste 10 Sudoeste 0 -- -- 74
2019-04-15 11:00:00 19.3 0 Calma 6 Oeste 0 -- -- 66
2019-04-15 10:00:00 19.7 3 Este 6 Oeste 0 -- -- 55
2019-04-15 09:00:00 17.2 6 Oeste 11 Oeste 0 -- -- 59
2019-04-15 08:00:00 15.3 0 Calma 17 Este 0 -- -- 63
2019-04-15 07:00:00 17 14 Este 24 Nordeste 0 -- -- 69
2019-04-15 06:00:00 17.5 15 Nordeste 22 Nordeste 0 -- -- 57
2019-04-15 05:00:00 16.3 9 Nordeste 12 Nordeste 0 -- -- 63
2019-04-15 04:00:00 16.2 2 Nordeste 5 Nordeste 0 -- -- 66
2019-04-15 03:00:00 17.1 3 Nordeste 8 Noroeste 0 -- -- 58
2019-04-15 02:00:00 18 5 Noroeste 10 Noroeste 0 -- -- 49
2019-04-15 01:00:00 18.8 6 Noroeste 13 Noroeste 0 -- -- 45
2019-04-15 00:00:00 17.9 11 Noroeste 15 Noroeste 0 -- -- 54
2019-04-14 23:00:00 18 10 Noroeste 16 Oeste 0 -- -- 58
2019-04-14 22:00:00 18.6 13 Oeste 18 Oeste 0 -- -- 60
2019-04-14 21:00:00 18.7 14 Oeste 22 Oeste 0 -- -- 61
2019-04-14 20:00:00 18.5 15 Oeste 19 Oeste 0 -- -- 72
2019-04-14 19:00:00 19.3 12 Oeste 17 Oeste 0 -- -- 74
2019-04-14 18:00:00 19.2 14 Oeste 17 Oeste 0 -- -- 72
2019-04-14 17:00:00 19.4 10 Sudoeste 11 Sudoeste 0 -- -- 69
2019-04-14 16:00:00 19.6 6 Sudoeste 8 Sudoeste 0 -- -- 70
2019-04-14 15:00:00 20.3 3 Sur 8 Este 0 -- -- 67
2019-04-14 14:00:00 19.2 6 Este 10 Este 0 -- -- 75
2019-04-14 13:00:00 19.1 10 Este 13 Este 0 -- -- 75
2019-04-14 12:00:00 19.4 5 Este 8 Sudoeste 0 -- -- 72
2019-04-14 11:00:00 18.5 5 Sudoeste 7 Sudoeste 0 -- -- 73
2019-04-14 10:00:00 17.7 4 Sudoeste 8 Sudoeste 0 -- -- 70
2019-04-14 09:00:00 16.9 5 Oeste 8 Oeste 0 -- -- 66
2019-04-14 08:00:00 15 5 Oeste 10 Oeste 0 -- -- 72
2019-04-14 07:00:00 14.8 8 Oeste 13 Oeste 0 -- -- 73
2019-04-14 06:00:00 14.9 7 Oeste 12 Oeste 0 -- -- 74
2019-04-14 05:00:00 15.8 8 Sudoeste 13 Oeste 0 -- -- 74
2019-04-14 04:00:00 15.1 7 Oeste 10 Oeste 0 -- -- 67
2019-04-14 03:00:00 15.2 0 Calma 9 Sudeste 0 -- -- 72
2019-04-14 02:00:00 15.2 4 Noroeste 9 Sur 0 -- -- 62
2019-04-14 01:00:00 15.6 0 Calma 14 Sudoeste 0 -- -- 65
2019-04-14 00:00:00 15.9 0 Calma 9 Noroeste 0 -- -- 75
2019-04-13 23:00:00 16.7 0 Calma 5 Oeste 0 -- -- 74
2019-04-13 22:00:00 17.5 3 Oeste 18 Noroeste 0 -- -- 73
2019-04-13 21:00:00 17.8 11 Oeste 15 Noroeste 0 -- -- 74
2019-04-13 20:00:00 18.5 9 Oeste 22 Oeste 0 -- -- 73
2019-04-13 19:00:00 18.7 18 Oeste 25 Oeste 0 -- -- 67
2019-04-13 18:00:00 18.5 20 Oeste 30 Sudoeste 0 -- -- 71
2019-04-13 17:00:00 18.7 18 Oeste 23 Oeste 0 -- -- 73
2019-04-13 16:00:00 18.7 12 Sudoeste 14 Sudoeste 0 -- -- 77
2019-04-13 15:00:00 18.5 9 Sudoeste 12 Sudoeste 0 -- -- 73
2019-04-13 14:00:00 17.6 13 Sudoeste 15 Oeste 0 -- -- 72
2019-04-13 13:00:00 17.2 12 Oeste 14 Oeste 0 -- -- 73
2019-04-13 12:00:00 17.2 12 Sudoeste 13 Sudoeste 0 -- -- 78
2019-04-13 11:00:00 17.2 9 Sudoeste 11 Sudoeste 0 -- -- 70
2019-04-13 10:00:00 18.1 2 Sudoeste 8 Sudoeste 0 -- -- 62
2019-04-13 09:00:00 18.1 0 Calma 5 Norte 0 -- -- 48
2019-04-13 08:00:00 13.7 0 Calma 6 Noroeste 0 -- -- 62
2019-04-13 07:00:00 13.4 0 Calma 8 Noroeste 0 -- -- 65
2019-04-13 06:00:00 13.7 0 Calma 6 Sudeste 0 -- -- 62
2019-04-13 05:00:00 14 3 Este 5 Noroeste 0 -- -- 65
2019-04-13 04:00:00 14.4 0 Calma 13 Sudoeste 0 -- -- 64
2019-04-13 03:00:00 16.8 9 Norte 13 Norte 0 -- -- 46
2019-04-13 02:00:00 16.4 2 Nordeste 11 Noroeste 0 -- -- 49
2019-04-13 01:00:00 17.7 9 Noroeste 14 Noroeste 0 -- -- 43
2019-04-13 00:00:00 16.1 9 Noroeste 14 Noroeste 0 -- -- 56
2019-04-12 23:00:00 15.3 10 Oeste 13 Oeste 0 -- -- 73
2019-04-12 22:00:00 16.4 3 Este 5 Este 0 -- -- 75
2019-04-12 21:00:00 17.4 4 Sudoeste 14 Oeste 0 -- -- 73
2019-04-12 20:00:00 18 15 Oeste 22 Oeste 0 -- -- 70
2019-04-12 19:00:00 18.2 18 Oeste 26 Oeste 0 -- -- 71
2019-04-12 18:00:00 18.1 17 Oeste 23 Oeste 0 -- -- 75
2019-04-12 17:00:00 18 17 Oeste 24 Oeste 0 -- -- 72
2019-04-12 16:00:00 18 18 Oeste 21 Oeste 0 -- -- 72
2019-04-12 15:00:00 17.7 13 Oeste 17 Oeste 0 -- -- 71
2019-04-12 14:00:00 17 14 Oeste 17 Oeste 0 -- -- 74
2019-04-12 13:00:00 17.5 11 Oeste 15 Oeste 0 -- -- 71
2019-04-12 12:00:00 16.7 13 Sudoeste 17 Sur 0 -- -- 73
2019-04-12 11:00:00 18.5 9 Sudoeste 24 Noroeste 0 -- -- 64
2019-04-12 10:00:00 18.4 5 Sudoeste 10 Noroeste 0 -- -- 48
2019-04-12 09:00:00 15.9 5 Oeste 10 Oeste 0 -- -- 58
2019-04-12 08:00:00 13.5 0 Calma 10 Norte 0 -- -- 70
2019-04-12 07:00:00 13.4 4 Norte 13 Sudoeste 0 -- -- 70
2019-04-12 06:00:00 14.8 4 Sudoeste 13 Norte 0 -- -- 64
2019-04-12 05:00:00 15.7 10 Norte 15 Norte 0 -- -- 50
2019-04-12 04:00:00 15.3 0 Calma 13 Norte 0 -- -- 64
2019-04-12 03:00:00 13.8 0 Calma 12 Sudoeste 0 -- -- 61
2019-04-12 02:00:00 14.5 3 Noroeste 9 Sudoeste 0 -- -- 58
2019-04-12 01:00:00 15.7 7 Noroeste 15 Oeste 0 -- -- 49
2019-04-12 00:00:00 15.4 10 Noroeste 15 Sudoeste 0 -- -- 52
2019-04-11 23:00:00 15.4 2 Noroeste 11 Oeste 0 -- -- 66
2019-04-11 22:00:00 15.7 5 Oeste 10 Oeste 0 -- -- 69
2019-04-11 21:00:00 16.6 5 Oeste 12 Oeste 0 -- -- 79
2019-04-11 20:00:00 17.5 6 Sudoeste 19 Sudoeste 0 -- -- 77
2019-04-11 19:00:00 17.3 12 Oeste 36 Sudoeste 0 -- -- 75
2019-04-11 18:00:00 16.9 28 Sudoeste 46 Sudoeste 0 -- -- 74
2019-04-11 17:00:00 16.9 29 Sudoeste 36 Sudoeste 0 -- -- 76
2019-04-11 16:00:00 16.8 29 Sudoeste 39 Sudoeste 0 -- -- 74
2019-04-11 15:00:00 16.6 31 Sudoeste 39 Sudoeste 0 -- -- 76
2019-04-11 14:00:00 17 15 Sudoeste 22 Sudoeste 0 -- -- 68
2019-04-11 13:00:00 16.6 11 Sudoeste 14 Sudoeste 0 -- -- 74
2019-04-11 12:00:00 16.3 9 Sudoeste 12 Sudoeste 0 -- -- 73
2019-04-11 11:00:00 16.5 6 Sudoeste 11 Sudoeste 0 -- -- 70
2019-04-11 10:00:00 16.5 5 Sudoeste 8 Sur 0 -- -- 64
2019-04-11 09:00:00 16.1 4 Nordeste 14 Oeste 0 -- -- 55
2019-04-11 08:00:00 12.5 6 Oeste 10 Nordeste 0 -- -- 63
2019-04-11 07:00:00 13.4 7 Oeste 15 Noroeste 0 -- -- 61
2019-04-11 06:00:00 13.8 10 Oeste 15 Oeste 0 -- -- 70
2019-04-11 05:00:00 14.6 7 Oeste 12 Norte 0 -- -- 59
2019-04-11 04:00:00 14.4 3 Norte 11 Sur 0 -- -- 57
2019-04-11 03:00:00 14.9 7 Noroeste 16 Noroeste 0 -- -- 53
2019-04-11 02:00:00 14.2 8 Noroeste 10 Noroeste 0 -- -- 69
2019-04-11 01:00:00 15.5 5 Sur 24 Oeste 0 -- -- 72
2019-04-11 00:00:00 15.5 17 Oeste 33 Oeste 0 -- -- 76
2019-04-10 23:00:00 16.1 26 Oeste 41 Sudoeste 0 -- -- 76
2019-04-10 22:00:00 16 22 Oeste 43 Oeste 0 -- -- 79
2019-04-10 21:00:00 16.8 31 Oeste 39 Sudoeste 0 -- -- 74
2019-04-10 20:00:00 20 4 Este 13 Sur 0 -- -- 42
2019-04-10 19:00:00 19.1 12 Sur 18 Sur 0 -- -- 49
2019-04-10 18:00:00 20.7 4 Nordeste 13 Sudeste 0 -- -- 48
2019-04-10 17:00:00 18.5 7 Sudeste 23 Sudoeste 0 -- -- 57
2019-04-10 16:00:00 17.6 19 Sudoeste 30 Sudoeste 0 -- -- 63
2019-04-10 15:00:00 16.9 19 Sudoeste 24 Sudoeste 0 -- -- 67
2019-04-10 14:00:00 16.7 16 Sudoeste 21 Sudoeste 0 -- -- 61
2019-04-10 13:00:00 16 16 Sudoeste 22 Sudoeste 0 -- -- 60
2019-04-10 12:00:00 15.7 14 Sudoeste 16 Sudoeste 0 -- -- 62
2019-04-10 11:00:00 16.3 6 Sudoeste 12 Sudoeste 0 -- -- 54
2019-04-10 10:00:00 16.7 7 Sur 12 Nordeste 0 -- -- 51
2019-04-10 09:00:00 15.8 5 Nordeste 13 Este 0 -- -- 52
2019-04-10 08:00:00 13 5 Noroeste 14 Oeste 0 -- -- 54
2019-04-10 07:00:00 13.6 10 Noroeste 18 Noroeste 0 -- -- 55
2019-04-10 06:00:00 14.3 9 Noroeste 22 Norte 0 -- -- 55
2019-04-10 05:00:00 14.6 9 Noroeste 24 Norte 0 -- -- 55
2019-04-10 04:00:00 13.7 9 Noroeste 15 Noroeste 0 -- -- 64
2019-04-10 03:00:00 13.9 10 Noroeste 26 Oeste 0 -- -- 70
2019-04-10 02:00:00 14.8 19 Oeste 36 Noroeste 0 -- -- 79
2019-04-10 01:00:00 15.2 19 Oeste 26 Oeste 0 -- -- 80
2019-04-10 00:00:00 15 15 Oeste 41 Oeste 0 -- -- 75
2019-04-09 23:00:00 15.6 33 Oeste 47 Sudoeste 0 -- -- 76
2019-04-09 22:00:00 15.8 40 Sudoeste 51 Sudoeste 0 -- -- 77
2019-04-09 21:00:00 16.3 39 Sudoeste 45 Sudoeste 0 -- -- 75
2019-04-09 20:00:00 16.6 38 Sudoeste 51 Sudoeste 0 -- -- 72
2019-04-09 19:00:00 17 41 Sudoeste 55 Sudoeste 0 -- -- 70
2019-04-09 18:00:00 17.3 44 Sudoeste 53 Sudoeste 0 -- -- 64
2019-04-09 17:00:00 17.1 39 Sudoeste 49 Sudoeste 0 -- -- 68
2019-04-09 16:00:00 16.5 37 Sudoeste 49 Sudoeste 0 -- -- 71
2019-04-09 15:00:00 16.5 42 Sudoeste 50 Sudoeste 0 -- -- 70
2019-04-09 14:00:00 16.3 40 Sudoeste 50 Sudoeste 0 -- -- 66
2019-04-09 13:00:00 15.9 34 Sudoeste 43 Sudoeste 0 -- -- 73
2019-04-09 12:00:00 15.3 31 Oeste 39 Oeste 0 -- -- 74
2019-04-09 11:00:00 15.5 9 Sudoeste 15 Oeste 0 -- -- 62
2019-04-09 10:00:00 15.6 8 Oeste 10 Oeste 0 -- -- 56
2019-04-09 09:00:00 14.5 5 Noroeste 8 Noroeste 0 -- -- 58
2019-04-09 08:00:00 11.7 4 Noroeste 14 Oeste 0 -- -- 67
2019-04-09 07:00:00 12.5 6 Norte 12 Nordeste 0 -- -- 67
2019-04-09 06:00:00 11.9 7 Noroeste 11 Norte 0 -- -- 72
2019-04-09 05:00:00 12.7 5 Norte 12 Nordeste 0 -- -- 82
2019-04-09 04:00:00 12.9 5 Norte 17 Oeste 0 -- -- 81
2019-04-09 03:00:00 14.2 9 Oeste 34 Sudoeste 0 -- -- 80
2019-04-09 02:00:00 14.7 5 Oeste 41 Sudoeste 0 -- -- 76
2019-04-09 01:00:00 15.2 35 Sudoeste 45 Sudoeste 0 -- -- 79
2019-04-09 00:00:00 15.2 31 Sudoeste 44 Sudoeste 0 -- -- 85
2019-04-08 23:00:00 15.7 39 Sudoeste 49 Sudoeste 0 -- -- 84
2019-04-08 22:00:00 15.6 34 Sudoeste 42 Sudoeste 0 -- -- 86
2019-04-08 21:00:00 15.4 33 Sudoeste 48 Sudoeste 0 -- -- 88
2019-04-08 20:00:00 16 39 Sudoeste 49 Sudoeste 0 -- -- 83
2019-04-08 19:00:00 17.4 37 Sudoeste 47 Sudoeste 0 -- -- 73
2019-04-08 18:00:00 17.3 38 Sudoeste 45 Sudoeste 0 -- -- 72
2019-04-08 17:00:00 17.4 31 Sudoeste 38 Sudoeste 0 -- -- 75
2019-04-08 16:00:00 16.8 28 Sudoeste 38 Sudoeste 0 -- -- 80
2019-04-08 15:00:00 16.8 32 Sudoeste 40 Sudoeste 0 -- -- 80
2019-04-08 14:00:00 16.3 32 Sudoeste 43 Sudoeste 0 -- -- 85
2019-04-08 13:00:00 16 30 Sudoeste 47 Sudoeste 0 -- -- 87
2019-04-08 12:00:00 16 38 Sudoeste 44 Sudoeste 0 -- -- 83
2019-04-08 11:00:00 16 29 Sudoeste 40 Sudoeste 0 -- -- 82
2019-04-08 10:00:00 15.8 28 Oeste 38 Oeste 0 -- -- 82
2019-04-08 09:00:00 15 17 Oeste 27 Oeste 0 -- -- 88
2019-04-08 08:00:00 15.1 15 Oeste 26 Oeste 0 -- -- 87
2019-04-08 07:00:00 15 18 Oeste 32 Oeste 0 -- -- 88
2019-04-08 06:00:00 15.1 24 Oeste 33 Oeste 0 -- -- 87
2019-04-08 05:00:00 14.9 17 Oeste 28 Oeste 0 -- -- 90
2019-04-08 04:00:00 15.2 23 Oeste 37 Sudoeste 0 -- -- 90
2019-04-08 03:00:00 15.6 33 Sudoeste 42 Sudoeste 0 -- -- 87
2019-04-08 02:00:00 15.5 22 Oeste 35 Sudoeste 0 -- -- 87
2019-04-08 01:00:00 15.3 18 Oeste 32 Sudoeste 0 -- -- 87
2019-04-08 00:00:00 15.5 28 Oeste 36 Sudoeste 0 -- -- 87
2019-04-07 23:00:00 15.4 38 Sudoeste 46 Sudoeste 0 -- -- 90
2019-04-07 22:00:00 15.3 22 Oeste 34 Oeste 0 -- -- 90
2019-04-07 21:00:00 14.9 21 Oeste 36 Oeste 0 -- -- 92
2019-04-07 20:00:00 14.8 28 Oeste 54 Oeste 0 -- -- 90
2019-04-07 19:00:00 15 45 Oeste 58 Oeste 0 -- -- 88
2019-04-07 18:00:00 15.1 45 Sudoeste 56 Sudoeste 0 -- -- 86
2019-04-07 17:00:00 15.8 44 Sudoeste 55 Sudoeste 0 -- -- 77
2019-04-07 16:00:00 16.2 37 Sudoeste 45 Sudoeste 0 -- -- 73
2019-04-07 15:00:00 15.5 29 Sudoeste 51 Sudoeste 0 -- -- 76
2019-04-07 14:00:00 15.2 37 Sudoeste 55 Sudoeste 0 -- -- 77
2019-04-07 13:00:00 15.4 42 Sudoeste 56 Sudoeste 0 -- -- 74
2019-04-07 12:00:00 15.1 36 Sudoeste 41 Sudoeste 0 -- -- 72
2019-04-07 11:00:00 14.9 27 Sudoeste 40 Sudoeste 0 -- -- 72
2019-04-07 10:00:00 15 19 Oeste 38 Oeste 0 -- -- 65
2019-04-07 09:00:00 15.1 11 Oeste 26 Oeste 0 -- -- 64
2019-04-07 08:00:00 13.7 20 Oeste 38 Sudoeste 0 -- -- 68
2019-04-07 07:00:00 14.4 28 Sudoeste 36 Oeste 0 -- -- 68
2019-04-07 06:00:00 13.3 20 Oeste 44 Oeste 0 -- -- 65
2019-04-07 05:00:00 13.9 42 Oeste 52 Sudoeste 0 -- -- 78
2019-04-07 04:00:00 13.7 42 Sudoeste 54 Sudoeste 0 -- -- 79
2019-04-07 03:00:00 14.2 40 Oeste 56 Sudoeste 0 -- -- 75
2019-04-07 02:00:00 14.5 43 Sudoeste 51 Sudoeste 0 -- -- 75
2019-04-07 01:00:00 14.4 31 Oeste 54 Sudoeste 0 -- -- 75
2019-04-07 00:00:00 14.6 47 Sudoeste 56 Sudoeste 0 -- -- 73
2019-04-06 23:00:00 14.8 45 Sudoeste 56 Sudoeste 0 -- -- 75
2019-04-06 22:00:00 14.9 39 Sudoeste 52 Sudoeste 0 -- -- 73
2019-04-06 21:00:00 15 43 Sudoeste 55 Sudoeste 0 -- -- 74
2019-04-06 20:00:00 15.1 41 Sudoeste 66 Sudoeste 0 -- -- 72
2019-04-06 19:00:00 14.7 49 Sudoeste 64 Sudoeste 0 -- -- 76
2019-04-06 18:00:00 14.7 46 Sudoeste 56 Sudoeste 0 -- -- 75
2019-04-06 17:00:00 14.2 53 Sudoeste 67 Sudoeste 0 -- -- 79
2019-04-06 16:00:00 14.1 50 Sudoeste 59 Sudoeste 0 -- -- 78
2019-04-06 15:00:00 14.5 42 Sudoeste 54 Sudoeste 0.2 -- -- 71
2019-04-06 14:00:00 15.2 35 Sudoeste 46 Sudoeste 0 -- -- 69
2019-04-06 13:00:00 14.1 34 Sudoeste 44 Sudoeste 0 -- -- 74
2019-04-06 12:00:00 13.7 33 Sudoeste 39 Sudoeste 0 -- -- 75
2019-04-06 11:00:00 13.5 26 Oeste 39 Oeste 0 -- -- 71
2019-04-06 10:00:00 13.1 33 Sudoeste 40 Sudoeste 0 -- -- 75
2019-04-06 09:00:00 12.4 15 Oeste 48 Sudoeste 0 -- -- 70
2019-04-06 08:00:00 13.1 43 Sudoeste 51 Sudoeste 0 -- -- 76
2019-04-06 07:00:00 13.2 33 Oeste 43 Oeste 0 -- -- 71
2019-04-06 06:00:00 13 36 Sudoeste 46 Sudoeste 0 -- -- 76
2019-04-06 05:00:00 13.6 35 Sudoeste 49 Sudoeste 0 -- -- 72
2019-04-06 04:00:00 13.7 39 Oeste 49 Sudoeste 0 -- -- 66
2019-04-06 03:00:00 13.8 37 Oeste 46 Sudoeste 0 -- -- 64
2019-04-06 02:00:00 13.7 22 Oeste 39 Oeste 0 -- -- 62
2019-04-06 01:00:00 14.2 34 Oeste 46 Sudoeste 0 -- -- 59
2019-04-06 00:00:00 14.2 36 Oeste 47 Sudoeste 0 -- -- 61
2019-04-05 23:00:00 14.1 25 Oeste 46 Oeste 0 -- -- 63
2019-04-05 22:00:00 14.4 33 Sudoeste 51 Oeste 0 -- -- 66
2019-04-05 21:00:00 14.8 38 Oeste 52 Sudoeste 0 -- -- 59
2019-04-05 20:00:00 15.3 39 Oeste 51 Sudoeste 0 -- -- 56
2019-04-05 19:00:00 15.7 41 Sudoeste 57 Sudoeste 0 -- -- 55
2019-04-05 18:00:00 15.8 43 Oeste 57 Sudoeste 0 -- -- 50
2019-04-05 17:00:00 15.7 36 Sudoeste 55 Oeste 0 -- -- 57
2019-04-05 16:00:00 15.7 38 Oeste 52 Oeste 0 -- -- 55
2019-04-05 15:00:00 15.1 34 Sudoeste 43 Sudoeste 0 -- -- 69
2019-04-05 14:00:00 13.7 30 Sudoeste 64 Sudoeste 1.2 -- -- 80
2019-04-05 13:00:00 13.4 46 Sudoeste 55 Sudoeste 0.8 -- -- 84
2019-04-05 12:00:00 13.4 33 Sudoeste 40 Sudoeste 0 -- -- 85
2019-04-05 11:00:00 13.3 37 Sudoeste 54 Sudoeste 1 -- -- 80
2019-04-05 10:00:00 13.5 51 Sudoeste 64 Sudoeste 0.6 -- -- 85
2019-04-05 09:00:00 13.7 42 Sudoeste 65 Sudoeste 1.4 -- -- 86
2019-04-05 08:00:00 13.9 40 Sudoeste 50 Sudoeste 0 -- -- 82
2019-04-05 07:00:00 13.8 34 Sudoeste 41 Sudoeste 0 -- -- 81
2019-04-05 06:00:00 14.2 32 Sudoeste 46 Sudoeste 0 -- -- 74
2019-04-05 05:00:00 14.5 40 Sudoeste 48 Sudoeste 0 -- -- 72
2019-04-05 04:00:00 14.6 35 Oeste 46 Oeste 0 -- -- 60
2019-04-05 03:00:00 14.6 30 Oeste 46 Oeste 0 -- -- 63
2019-04-05 02:00:00 14.5 43 Oeste 50 Oeste 0 -- -- 65
2019-04-05 01:00:00 14.4 42 Oeste 61 Sudoeste 0 -- -- 61
2019-04-05 00:00:00 14.2 51 Sudoeste 70 Sudoeste 0 -- -- 65
2019-04-04 23:00:00 14.4 57 Sudoeste 72 Sudoeste 0 -- -- 67
2019-04-04 22:00:00 14.9 57 Sudoeste 68 Sudoeste 0 -- -- 63
2019-04-04 21:00:00 15.4 51 Sudoeste 62 Sudoeste 0 -- -- 65
2019-04-04 20:00:00 16 47 Sudoeste 58 Sudoeste 0 -- -- 69
2019-04-04 19:00:00 16.2 43 Sudoeste 55 Sudoeste 0 -- -- 69
2019-04-04 18:00:00 16.4 46 Sudoeste 57 Sudoeste 0 -- -- 66
2019-04-04 17:00:00 16.9 47 Sudoeste 56 Sudoeste 0 -- -- 65
2019-04-04 16:00:00 16.7 35 Sudoeste 43 Sudoeste 0 -- -- 68
2019-04-04 15:00:00 17.2 26 Sudoeste 36 Sudoeste 0 -- -- 58
2019-04-04 14:00:00 17 32 Sudoeste 40 Sudoeste 0 -- -- 58
2019-04-04 13:00:00 16.6 29 Sudoeste 40 Sudoeste 0 -- -- 59
2019-04-04 12:00:00 15.8 19 Sudoeste 23 Sudoeste 0 -- -- 69
2019-04-04 11:00:00 17.4 5 Sudoeste 10 Sudoeste 0 -- -- 39
2019-04-04 10:00:00 16.6 8 Sudoeste 16 Sudoeste 0 -- -- 40
2019-04-04 09:00:00 15.3 5 Sudoeste 14 Noroeste 0 -- -- 47
2019-04-04 08:00:00 13.7 7 Noroeste 18 Noroeste 0 -- -- 48
2019-04-04 07:00:00 13.3 6 Oeste 20 Noroeste 0 -- -- 54
2019-04-04 06:00:00 13.8 8 Oeste 11 Oeste 0 -- -- 55
2019-04-04 05:00:00 12.7 3 Noroeste 10 Oeste 0 -- -- 69
2019-04-04 04:00:00 14 6 Noroeste 11 Noroeste 0 -- -- 67
2019-04-04 03:00:00 14.2 8 Oeste 12 Oeste 0 -- -- 63
2019-04-04 02:00:00 14.7 8 Oeste 12 Oeste 0 -- -- 67
2019-04-04 01:00:00 14.8 0 Calma 10 Sudoeste 0 -- -- 71
2019-04-04 00:00:00 16.4 3 Noroeste 23 Sudoeste 0 -- -- 68
2019-04-03 23:00:00 17.6 11 Sudoeste 25 Oeste 0 -- -- 67
2019-04-03 22:00:00 18.8 8 Oeste 22 Sudoeste 0 -- -- 55
2019-04-03 21:00:00 19 22 Oeste 38 Oeste 0 -- -- 63
2019-04-03 20:00:00 20.5 15 Oeste 28 Oeste 0 -- -- 59
2019-04-03 19:00:00 20.4 6 Oeste 10 Oeste 0 -- -- 66
2019-04-03 18:00:00 19.7 10 Sudoeste 16 Sudoeste 0 -- -- 67
2019-04-03 17:00:00 18.8 12 Oeste 18 Sudoeste 0 -- -- 72
2019-04-03 16:00:00 17.8 14 Sudoeste 18 Sudoeste 0 -- -- 71
2019-04-03 15:00:00 17.9 9 Sudoeste 14 Sudoeste 0 -- -- 70
2019-04-03 14:00:00 17.5 12 Sudoeste 14 Sudoeste 0 -- -- 78
2019-04-03 13:00:00 17.2 8 Oeste 10 Sudoeste 0 -- -- 78
2019-04-03 12:00:00 17.3 10 Este 21 Este 0 -- -- 80
2019-04-03 11:00:00 17.1 17 Este 20 Este 0 -- -- 74
2019-04-03 10:00:00 17.6 5 Este 6 Este 0 -- -- 71
2019-04-03 09:00:00 16.2 0 Calma 6 Noroeste 0 -- -- 76
2019-04-03 08:00:00 13 4 Noroeste 6 Noroeste 0 -- -- 83
2019-04-03 07:00:00 13.3 0 Calma 4 Este 0 -- -- 81
2019-04-03 06:00:00 13.3 3 Noroeste 10 Oeste 0 -- -- 80
2019-04-03 05:00:00 14.1 6 Oeste 11 Noroeste 0 -- -- 79
2019-04-03 04:00:00 14.7 8 Noroeste 13 Noroeste 0 -- -- 78
2019-04-03 03:00:00 14.8 8 Noroeste 13 Noroeste 0 -- -- 74
2019-04-03 02:00:00 15 10 Noroeste 15 Noroeste 0 -- -- 74
2019-04-03 01:00:00 14.7 13 Noroeste 17 Oeste 0 -- -- 80
2019-04-03 00:00:00 15.3 13 Oeste 19 Noroeste 0 -- -- 80
2019-04-02 23:00:00 15.6 12 Oeste 17 Noroeste 0 -- -- 76
2019-04-02 22:00:00 15.9 12 Noroeste 22 Sudoeste 0 -- -- 76
2019-04-02 21:00:00 16.7 17 Oeste 22 Oeste 0 -- -- 82
2019-04-02 20:00:00 16.9 17 Oeste 22 Oeste 0 -- -- 81
2019-04-02 19:00:00 16.7 20 Oeste 23 Oeste 0 -- -- 79
2019-04-02 18:00:00 17 18 Sudoeste 21 Sudoeste 0 -- -- 79
2019-04-02 17:00:00 17.3 14 Sudoeste 16 Sudoeste 0 -- -- 79
2019-04-02 16:00:00 17 12 Sudoeste 16 Sudoeste 0 -- -- 80
2019-04-02 15:00:00 18.5 6 Sur 11 Este 0 -- -- 70
2019-04-02 14:00:00 17.1 9 Este 15 Este 0 -- -- 77
2019-04-02 13:00:00 17.1 12 Este 15 Este 0 -- -- 78
2019-04-02 12:00:00 17.3 13 Este 17 Este 0 -- -- 77
2019-04-02 11:00:00 17.9 6 Sudeste 8 Sudeste 0 -- -- 69
2019-04-02 10:00:00 18.7 2 Sudeste -- -- 0 -- -- 67
2019-04-02 09:00:00 13.9 3 Este 4 Este 0 -- -- 88
2019-04-02 08:00:00 12.8 3 Norte 8 Norte 0 -- -- 91
2019-04-02 07:00:00 12.7 4 Nordeste 6 Norte 0 -- -- 91
2019-04-02 06:00:00 13 4 Nordeste 9 Norte 0 -- -- 91
2019-04-02 05:00:00 13.2 0 Calma 4 Nordeste 0 -- -- 90
2019-04-02 04:00:00 13.2 0 Calma 6 Noroeste 0 -- -- 88
2019-04-02 03:00:00 13.7 3 Noroeste 8 Noroeste 0 -- -- 87
2019-04-02 02:00:00 13.7 3 Nordeste 6 Noroeste 0 -- -- 87
2019-04-02 01:00:00 14.1 4 Noroeste 6 Noroeste 0 -- -- 85
2019-04-02 00:00:00 14.6 2 Noroeste 6 Noroeste 0 -- -- 84
2019-04-01 23:00:00 14.7 3 Norte 7 Norte 0 -- -- 85
2019-04-01 22:00:00 15.2 3 Noroeste 8 Norte 0 -- -- 82
2019-04-01 21:00:00 16.3 3 Norte 8 Noroeste 0 -- -- 79
2019-04-01 20:00:00 19.1 0 Calma 5 Sudoeste 0 -- -- 69
2019-04-01 19:00:00 20.4 0 Calma 8 Este 0 -- -- 63
2019-04-01 18:00:00 18.9 5 Este 6 Este 0 -- -- 69
2019-04-01 17:00:00 18.9 4 Sur 11 Sudeste 0 -- -- 69
2019-04-01 16:00:00 16.7 6 Sudoeste 13 Sudoeste 0 -- -- 78
2019-04-01 15:00:00 15.3 7 Oeste 27 Oeste 1.6 -- -- 85
2019-04-01 14:00:00 15.4 12 Oeste 28 Oeste 1 -- -- 85
2019-04-01 13:00:00 17.2 8 Sudoeste 16 Oeste 0 -- -- 75
2019-04-01 12:00:00 16.4 16 Oeste 22 Oeste 0 -- -- 81
2019-04-01 11:00:00 16.1 8 Sudoeste 12 Oeste 0 -- -- 76
2019-04-01 10:00:00 16 5 Oeste 9 Noroeste 0 -- -- 82
2019-04-01 09:00:00 14.2 3 Oeste 19 Oeste 0.8 -- -- 89
2019-04-01 08:00:00 15 4 Sur 6 Sur 0 -- -- 88
2019-04-01 07:00:00 13.8 0 Calma 7 Norte 0 -- -- 89
2019-04-01 06:00:00 13.6 3 Norte 8 Noroeste 0 -- -- 91
2019-04-01 05:00:00 13.7 5 Noroeste 9 Noroeste 0 -- -- 91
2019-04-01 04:00:00 14.2 5 Noroeste 9 Noroeste 0 -- -- 91
2019-04-01 03:00:00 14.6 3 Noroeste 5 Oeste 0 -- -- 89
2019-04-01 02:00:00 14.5 3 Norte 6 Norte 0 -- -- 88
2019-04-01 01:00:00 14.8 0 Calma 4 Norte 0 -- -- 88
2019-04-01 00:00:00 14.9 3 Noroeste 12 Oeste 0 -- -- 87
2019-03-31 23:00:00 15.6 13 Oeste 25 Sudoeste 0 -- -- 87
2019-03-31 22:00:00 15.8 21 Sudoeste 27 Sudoeste 0 -- -- 85
2019-03-31 21:00:00 15.7 21 Oeste 25 Oeste 0 -- -- 86
2019-03-31 20:00:00 15.7 21 Sudoeste 23 Sudoeste 0 -- -- 85
2019-03-31 19:00:00 15.8 21 Sudoeste 25 Sudoeste 0 -- -- 85
2019-03-31 18:00:00 16.2 20 Oeste 27 Oeste 0 -- -- 83
2019-03-31 17:00:00 16.2 19 Sudoeste 22 Oeste 0 -- -- 83
2019-03-31 16:00:00 16 18 Sudoeste 21 Oeste 0 -- -- 82
2019-03-31 15:00:00 15.9 14 Sudoeste 17 Sudoeste 0 -- -- 80
2019-03-31 14:00:00 16 9 Sudoeste 11 Sudoeste 0 -- -- 79
2019-03-31 13:00:00 15.3 8 Sudoeste 13 Sudoeste 0 -- -- 83
2019-03-31 12:00:00 15 5 Sudoeste 8 Sudoeste 0 -- -- 83
2019-03-31 11:00:00 14.1 4 Este 12 Nordeste 0 -- -- 88
2019-03-31 10:00:00 13.5 0 Calma 4 Nordeste 0.2 -- -- 92
2019-03-31 09:00:00 12.9 0 Calma 10 Nordeste 1.2 -- -- 93
2019-03-31 08:00:00 12.9 8 Nordeste 11 Nordeste 3.2 -- -- 93
2019-03-31 07:00:00 12.7 9 Nordeste 12 Nordeste 1.4 -- -- 92
2019-03-31 06:00:00 13.3 4 Este 9 Sudeste 1.8 -- -- 92
2019-03-31 05:00:00 13.4 5 Nordeste 26 Este 2.4 -- -- 92
2019-03-31 03:00:00 13.6 26 Nordeste 37 Nordeste 0.8 -- -- 88
2019-03-31 01:00:00 13.9 21 Nordeste 33 Este 2 -- -- 91
2019-03-31 00:00:00 14.5 18 Nordeste 31 Este 1.6 -- -- 89
2019-03-30 23:00:00 14.9 28 Este 37 Este 0.2 -- -- 86
2019-03-30 22:00:00 15.3 29 Este 36 Nordeste 0 -- -- 83
2019-03-30 21:00:00 15.1 18 Nordeste 24 Este 0 -- -- 80
2019-03-30 20:00:00 15.2 20 Este 24 Este 0 -- -- 80
2019-03-30 19:00:00 15.2 18 Este 24 Este 0 -- -- 79
2019-03-30 18:00:00 15.2 20 Este 30 Este 0 -- -- 79
2019-03-30 17:00:00 15.2 24 Este 33 Este 0 -- -- 80
2019-03-30 16:00:00 15.2 31 Este 40 Este 0 -- -- 79
2019-03-30 15:00:00 15.1 33 Este 40 Este 0 -- -- 78
2019-03-30 14:00:00 15.3 31 Este 40 Nordeste 0 -- -- 76
2019-03-30 13:00:00 15.4 33 Este 39 Nordeste 0 -- -- 76
2019-03-30 12:00:00 15.6 32 Este 39 Este 0 -- -- 75
2019-03-30 11:00:00 15.9 35 Este 43 Este 0 -- -- 71
2019-03-30 10:00:00 15.1 33 Este 45 Nordeste 0 -- -- 75
2019-03-30 09:00:00 15 31 Nordeste 42 Nordeste 0 -- -- 76
2019-03-30 08:00:00 14.9 33 Nordeste 40 Nordeste 0 -- -- 76
2019-03-30 07:00:00 14.8 32 Este 39 Este 0 -- -- 76
2019-03-30 06:00:00 14.7 35 Este 40 Este 0 -- -- 75
2019-03-30 05:00:00 15.1 30 Este 36 Este 0 -- -- 78
2019-03-30 04:00:00 15 30 Este 36 Este 0 -- -- 78
2019-03-30 03:00:00 15.1 28 Este 37 Este 0 -- -- 75
2019-03-30 02:00:00 15.3 30 Este 36 Este 0 -- -- 75
2019-03-30 01:00:00 15.3 29 Este 35 Este 0 -- -- 74
2019-03-30 00:00:00 15.3 31 Este 40 Este 0 -- -- 73
2019-03-29 23:00:00 15.4 32 Este 38 Este 0 -- -- 72
2019-03-29 22:00:00 15.5 27 Este 34 Este 0 -- -- 73
2019-03-29 21:00:00 15.4 23 Este 29 Este 0 -- -- 74
2019-03-29 20:00:00 15.3 23 Este 26 Este 0 -- -- 73
2019-03-29 19:00:00 15.7 21 Este 27 Este 0 -- -- 74
2019-03-29 18:00:00 16.2 24 Este 30 Este 0 -- -- 72
2019-03-29 17:00:00 16.5 27 Este 34 Este 0 -- -- 71
2019-03-29 16:00:00 16.6 29 Este 34 Este 0 -- -- 71
2019-03-29 15:00:00 16.2 30 Este 37 Este 0 -- -- 70
2019-03-29 14:00:00 16.4 26 Este 37 Este 0 -- -- 68
2019-03-29 13:00:00 16.3 30 Este 40 Este 0 -- -- 69
2019-03-29 12:00:00 15.5 35 Este 41 Este 0 -- -- 70
2019-03-29 11:00:00 15.5 32 Este 41 Este 0 -- -- 71
2019-03-29 10:00:00 15 32 Este 40 Este 0 -- -- 73
2019-03-29 09:00:00 14.9 31 Este 40 Este 0 -- -- 73
2019-03-29 08:00:00 14.9 32 Este 40 Este 0 -- -- 72
2019-03-29 07:00:00 14.9 29 Este 37 Este 0 -- -- 70
2019-03-29 06:00:00 14.8 31 Este 41 Este 0 -- -- 69
2019-03-29 05:00:00 14.9 30 Este 37 Este 0 -- -- 68
2019-03-29 04:00:00 15.1 31 Este 42 Este 0 -- -- 68
2019-03-29 03:00:00 15 35 Este 47 Este 0 -- -- 69
2019-03-29 02:00:00 15.1 36 Este 44 Este 0 -- -- 62
2019-03-29 01:00:00 15.2 36 Este 45 Este 0 -- -- 63
2019-03-29 00:00:00 15.3 32 Este 43 Este 0 -- -- 66
2019-03-28 23:00:00 15.5 35 Este 43 Este 0 -- -- 66
2019-03-28 22:00:00 15.4 32 Este 46 Este 0 -- -- 68
2019-03-28 21:00:00 15.5 32 Este 40 Nordeste 0 -- -- 65
2019-03-28 20:00:00 15.1 24 Nordeste 35 Este 0 -- -- 67
2019-03-28 19:00:00 15.3 28 Este 35 Nordeste 0 -- -- 71
2019-03-28 18:00:00 16 30 Este 37 Este 0 -- -- 69
2019-03-28 17:00:00 16.4 30 Este 36 Este 0 -- -- 69
2019-03-28 16:00:00 16.4 30 Este 42 Este 0 -- -- 68
2019-03-28 15:00:00 16.2 37 Este 47 Este 0 -- -- 67
2019-03-28 14:00:00 16.2 37 Este 46 Este 0 -- -- 66
2019-03-28 13:00:00 16.1 38 Este 46 Este 0 -- -- 65
2019-03-28 12:00:00 16 38 Este 48 Este 0 -- -- 61
2019-03-28 11:00:00 15.9 40 Este 47 Este 0 -- -- 57
2019-03-28 10:00:00 15.7 37 Este 46 Nordeste 0 -- -- 62
2019-03-28 09:00:00 15.5 36 Este 43 Nordeste 0 -- -- 63
2019-03-28 08:00:00 14.9 33 Este 44 Este 0 -- -- 66
2019-03-28 07:00:00 14.5 36 Este 44 Este 0 -- -- 66
2019-03-28 06:00:00 14.5 34 Este 40 Este 0 -- -- 68
2019-03-28 05:00:00 14.5 33 Este 41 Este 0 -- -- 68
2019-03-28 04:00:00 14.8 32 Este 39 Este 0 -- -- 64
2019-03-28 03:00:00 14.7 32 Este 39 Este 0 -- -- 65
2019-03-28 02:00:00 14.8 31 Este 41 Este 0 -- -- 68
2019-03-28 01:00:00 15.2 35 Este 42 Este 0 -- -- 66
2019-03-28 00:00:00 15.4 32 Este 42 Este 0 -- -- 71
2019-03-27 23:00:00 15.3 33 Este 46 Este 0 -- -- 68
2019-03-27 22:00:00 15.4 26 Este 33 Este 0 -- -- 71
2019-03-27 21:00:00 15.6 24 Este 31 Este 0 -- -- 71
2019-03-27 20:00:00 15.5 24 Este 33 Este 0 -- -- 67
2019-03-27 19:00:00 15.7 27 Este 36 Este 0 -- -- 65
2019-03-27 18:00:00 16.3 32 Este 39 Este 0 -- -- 61
2019-03-27 17:00:00 16.3 27 Este 41 Este 0 -- -- 64
2019-03-27 16:00:00 16.3 37 Este 45 Este 0 -- -- 56
2019-03-27 15:00:00 16 37 Este 51 Este 0 -- -- 57
2019-03-27 14:00:00 16.3 40 Este 52 Este 0 -- -- 52
2019-03-27 13:00:00 16.5 40 Este 56 Este 0 -- -- 51
2019-03-27 12:00:00 16.3 44 Este 55 Este 0 -- -- 50
2019-03-27 11:00:00 16.1 47 Este 58 Este 0 -- -- 55
2019-03-27 10:00:00 15.7 48 Este 60 Este 0 -- -- 58
2019-03-27 09:00:00 15.2 49 Este 64 Este 0 -- -- 61
2019-03-27 08:00:00 14.8 50 Este 67 Este 0 -- -- 63
2019-03-27 07:00:00 14.7 52 Este 65 Este 0 -- -- 65
2019-03-27 06:00:00 14.8 55 Este 68 Este 0 -- -- 62
2019-03-27 05:00:00 15.1 48 Este 64 Este 0 -- -- 64
2019-03-27 04:00:00 15.1 47 Este 66 Este 0 -- -- 63
2019-03-27 03:00:00 15.1 47 Este 61 Este 0 -- -- 66
2019-03-27 02:00:00 15.3 41 Este 55 Este 0 -- -- 69
2019-03-27 01:00:00 15.8 35 Este 56 Este 0 -- -- 69
2019-03-27 00:00:00 15.8 32 Este 52 Este 0 -- -- 62
2019-03-26 23:00:00 16.3 30 Este 38 Este 0 -- -- 61
2019-03-26 22:00:00 16.4 24 Este 37 Este 0 -- -- 74
2019-03-26 21:00:00 16.6 25 Este 33 Este 0 -- -- 76
2019-03-26 20:00:00 16.9 12 Sudeste 20 Sudeste 0 -- -- 72
2019-03-26 19:00:00 17.1 12 Este 21 Este 0 -- -- 70
2019-03-26 18:00:00 17.3 14 Este 19 Este 0 -- -- 69
2019-03-26 17:00:00 17.9 5 Sudeste 9 Sur 0 -- -- 68
2019-03-26 16:00:00 18.5 7 Este 14 Este 0 -- -- 59
2019-03-26 15:00:00 18.7 9 Sudeste 16 Este 0 -- -- 58
2019-03-26 14:00:00 19.2 15 Este 21 Este 0 -- -- 55
2019-03-26 13:00:00 20.9 2 Este 13 Este 0 -- -- 45
2019-03-26 12:00:00 18.4 10 Este 18 Nordeste 0 -- -- 51
2019-03-26 11:00:00 19.4 11 Este 26 Este 0 -- -- 54
2019-03-26 10:00:00 19.5 11 Nordeste 19 Nordeste 0 -- -- 51
2019-03-26 09:00:00 19 2 Oeste 10 Nordeste 0 -- -- 57
2019-03-26 08:00:00 16 5 Norte 14 Nordeste 0 -- -- 63
2019-03-26 07:00:00 15 6 Norte 12 Nordeste 0 -- -- 64
2019-03-26 06:00:00 15.1 7 Norte 14 Norte 0 -- -- 65
2019-03-26 05:00:00 14.8 6 Noroeste 15 Nordeste 0 -- -- 69
2019-03-26 04:00:00 15.5 7 Nordeste 15 Nordeste 0 -- -- 69
2019-03-26 03:00:00 15.7 7 Norte 16 Nordeste 0 -- -- 69
2019-03-26 02:00:00 15.9 8 Nordeste 21 Nordeste 0 -- -- 70
2019-03-26 01:00:00 16.3 9 Nordeste 18 Nordeste 0 -- -- 68
2019-03-26 00:00:00 16.3 9 Nordeste 20 Nordeste 0 -- -- 68
2019-03-25 23:00:00 16.6 11 Nordeste 27 Nordeste 0 -- -- 65
2019-03-25 22:00:00 16.7 12 Nordeste 20 Norte 0 -- -- 65
2019-03-25 21:00:00 16.7 11 Nordeste 24 Nordeste 0 -- -- 66
2019-03-25 20:00:00 17.1 14 Nordeste 23 Nordeste 0 -- -- 63
2019-03-25 19:00:00 17.9 18 Nordeste 27 Nordeste 0 -- -- 62
2019-03-25 18:00:00 18.2 19 Este 27 Este 0 -- -- 62
2019-03-25 17:00:00 18.8 17 Este 23 Este 0 -- -- 58
2019-03-25 16:00:00 18.9 14 Este 21 Este 0 -- -- 57
2019-03-25 15:00:00 18.6 15 Este 22 Nordeste 0 -- -- 59
2019-03-25 14:00:00 18.5 18 Este 30 Nordeste 0 -- -- 55
2019-03-25 13:00:00 18.4 18 Este 28 Este 0 -- -- 57
2019-03-25 12:00:00 18.3 19 Este 29 Nordeste 0 -- -- 57
2019-03-25 11:00:00 18.5 13 Este 26 Este 0 -- -- 61
2019-03-25 10:00:00 17.8 17 Este 26 Nordeste 0 -- -- 60
2019-03-25 09:00:00 17.9 11 Nordeste 17 Nordeste 0 -- -- 57
2019-03-25 08:00:00 16.2 9 Nordeste 16 Nordeste 0 -- -- 66
2019-03-25 07:00:00 14.6 8 Norte 14 Nordeste 0 -- -- 69
2019-03-25 06:00:00 14.5 9 Norte 14 Nordeste 0 -- -- 72
2019-03-25 05:00:00 14.8 7 Norte 12 Norte 0 -- -- 75
2019-03-25 04:00:00 15.1 10 Norte 17 Norte 0 -- -- 74
2019-03-25 03:00:00 15.2 12 Nordeste 19 Nordeste 0 -- -- 72
2019-03-25 02:00:00 15.2 8 Nordeste 14 Nordeste 0 -- -- 72
2019-03-25 01:00:00 15.6 10 Nordeste 15 Nordeste 0 -- -- 71
2019-03-25 00:00:00 16.1 10 Nordeste 19 Norte 0 -- -- 69
2019-03-24 23:00:00 15.7 13 Nordeste 22 Nordeste 0 -- -- 70
2019-03-24 22:00:00 16.1 14 Nordeste 27 Nordeste 0 -- -- 68
2019-03-24 21:00:00 16.3 14 Nordeste 26 Nordeste 0 -- -- 66
2019-03-24 20:00:00 16.1 18 Nordeste 28 Nordeste 0 -- -- 68
2019-03-24 19:00:00 16.5 21 Nordeste 39 Nordeste 0 -- -- 66
2019-03-24 18:00:00 16.5 24 Nordeste 38 Nordeste 0 -- -- 67
2019-03-24 17:00:00 16.4 26 Nordeste 37 Nordeste 0 -- -- 69
2019-03-24 16:00:00 16.7 23 Nordeste 46 Nordeste 0 -- -- 69
2019-03-24 15:00:00 17.2 26 Nordeste 39 Nordeste 0 -- -- 67
2019-03-24 14:00:00 16.3 16 Nordeste 26 Nordeste 0.2 -- -- 76
2019-03-24 13:00:00 16.1 12 Nordeste 27 Este 0 -- -- 79
2019-03-24 12:00:00 16.3 24 Este 40 Este 0 -- -- 74
2019-03-24 11:00:00 16.5 37 Este 45 Este 0 -- -- 76
2019-03-24 10:00:00 15.9 37 Este 46 Este 0 -- -- 77
2019-03-24 09:00:00 15.9 31 Este 40 Este 0 -- -- 77
2019-03-24 08:00:00 15.9 25 Este 31 Este 0 -- -- 76
2019-03-24 07:00:00 15.7 19 Este 26 Este 0 -- -- 77
2019-03-24 06:00:00 15.6 19 Este 28 Este 0 -- -- 77
2019-03-24 05:00:00 15.4 24 Este 33 Este 0 -- -- 77
2019-03-24 04:00:00 15.5 28 Este 38 Este 0 -- -- 76
2019-03-24 03:00:00 15.6 31 Este 39 Este 0 -- -- 76
2019-03-24 02:00:00 15.7 28 Este 35 Este 0 -- -- 74
2019-03-24 01:00:00 15.6 28 Este 41 Este 0 -- -- 75
2019-03-24 00:00:00 15.7 33 Este 49 Este 0 -- -- 74
2019-03-23 23:00:00 15.7 37 Este 52 Este 0 -- -- 77
2019-03-23 22:00:00 15.8 37 Este 49 Este 0 -- -- 76
2019-03-23 21:00:00 15.9 30 Este 41 Nordeste 0 -- -- 77
2019-03-23 20:00:00 15.9 34 Este 47 Este 0 -- -- 76
2019-03-23 19:00:00 16.2 32 Nordeste 44 Nordeste 0 -- -- 73
2019-03-23 18:00:00 16.4 32 Nordeste 49 Este 0 -- -- 72
2019-03-23 17:00:00 16.2 36 Este 50 Este 0 -- -- 76
2019-03-23 16:00:00 16.7 36 Este 48 Este 0 -- -- 73
2019-03-23 15:00:00 16.3 36 Este 54 Este 0 -- -- 73
2019-03-23 14:00:00 16.8 37 Este 49 Este 0 -- -- 72
2019-03-23 13:00:00 16.9 39 Este 52 Este 0 -- -- 70
2019-03-23 12:00:00 16.5 38 Este 46 Este 0 -- -- 76
2019-03-23 11:00:00 16.4 39 Este 46 Este 0 -- -- 75
2019-03-23 10:00:00 16.1 28 Nordeste 39 Nordeste 0 -- -- 70
2019-03-23 09:00:00 15.1 17 Nordeste 23 Nordeste 0 -- -- 72
2019-03-23 08:00:00 14.2 14 Nordeste 23 Nordeste 0 -- -- 75
2019-03-23 07:00:00 14.1 13 Nordeste 22 Nordeste 0 -- -- 75
2019-03-23 06:00:00 13.9 12 Nordeste 27 Nordeste 0 -- -- 76
2019-03-23 05:00:00 14.2 15 Nordeste 29 Nordeste 0 -- -- 76
2019-03-23 04:00:00 14.6 20 Nordeste 39 Nordeste 0 -- -- 75
2019-03-23 03:00:00 14.9 27 Nordeste 36 Nordeste 0 -- -- 75
2019-03-23 02:00:00 15 29 Nordeste 36 Nordeste 0 -- -- 72
2019-03-23 01:00:00 15 27 Nordeste 35 Nordeste 0 -- -- 73
2019-03-23 00:00:00 14.9 24 Nordeste 32 Este 0 -- -- 70
2019-03-22 23:00:00 14.4 16 Nordeste 23 Nordeste 0 -- -- 74
2019-03-22 22:00:00 14.6 16 Nordeste 36 Este 0 -- -- 74
2019-03-22 21:00:00 14.9 30 Nordeste 40 Nordeste 0 -- -- 76
2019-03-22 20:00:00 15.1 32 Este 38 Este 0 -- -- 74
2019-03-22 19:00:00 15.5 29 Este 33 Este 0 -- -- 72
2019-03-22 18:00:00 15.9 29 Este 34 Nordeste 0 -- -- 70
2019-03-22 17:00:00 16.1 31 Este 38 Este 0 -- -- 68
2019-03-22 16:00:00 16 31 Este 35 Nordeste 0 -- -- 66
2019-03-22 15:00:00 16.1 30 Este 36 Este 0 -- -- 65
2019-03-22 14:00:00 16 32 Este 40 Este 0 -- -- 61
2019-03-22 13:00:00 15.8 30 Este 40 Este 0 -- -- 61
2019-03-22 12:00:00 15.9 29 Nordeste 43 Nordeste 0 -- -- 58
2019-03-22 11:00:00 15.5 31 Este 43 Nordeste 0 -- -- 56
2019-03-22 10:00:00 14.9 28 Nordeste 37 Nordeste 0 -- -- 61
2019-03-22 09:00:00 15.2 17 Nordeste 25 Nordeste 0 -- -- 62
2019-03-22 08:00:00 13.5 15 Nordeste 25 Nordeste 0 -- -- 67
2019-03-22 07:00:00 13.9 17 Nordeste 41 Este 0 -- -- 68
2019-03-22 06:00:00 14.6 33 Este 44 Este 0 -- -- 70
2019-03-22 05:00:00 14.6 35 Este 43 Este 0 -- -- 70
2019-03-22 04:00:00 14.6 35 Este 41 Este 0 -- -- 68
2019-03-22 03:00:00 14.7 36 Este 46 Este 0 -- -- 68
2019-03-22 02:00:00 14.8 35 Este 44 Este 0 -- -- 69
2019-03-22 01:00:00 14.8 35 Este 44 Este 0 -- -- 66
2019-03-22 00:00:00 14.9 33 Este 39 Este 0 -- -- 66
2019-03-21 23:00:00 14.8 28 Este 37 Este 0 -- -- 69
2019-03-21 22:00:00 14.7 23 Este 32 Este 0 -- -- 70
2019-03-21 21:00:00 14.6 27 Este 33 Este 0 -- -- 67
2019-03-21 20:00:00 14.6 29 Este 34 Este 0 -- -- 70
2019-03-21 19:00:00 14.8 24 Este 34 Este 0 -- -- 66
2019-03-21 18:00:00 15.5 28 Este 34 Este 0 -- -- 66
2019-03-21 17:00:00 15.9 28 Este 39 Este 0 -- -- 60
2019-03-21 16:00:00 15.2 30 Este 37 Este 0 -- -- 63
2019-03-21 15:00:00 15.4 28 Este 39 Este 0 -- -- 60
2019-03-21 14:00:00 15.6 33 Este 42 Este 0 -- -- 58
2019-03-21 13:00:00 15.4 35 Este 45 Este 0 -- -- 56
2019-03-21 12:00:00 15.3 28 Nordeste 42 Este 0 -- -- 56
2019-03-21 11:00:00 15.3 27 Nordeste 38 Nordeste 0 -- -- 54
2019-03-21 10:00:00 14.8 21 Nordeste 51 Este 0 -- -- 55
2019-03-21 09:00:00 14.7 38 Este 48 Este 0 -- -- 57
2019-03-21 08:00:00 13.9 26 Nordeste 45 Este 0 -- -- 61
2019-03-21 07:00:00 13.7 30 Nordeste 45 Este 0 -- -- 63
2019-03-21 06:00:00 14 35 Este 45 Nordeste 0 -- -- 63
2019-03-21 05:00:00 14 32 Este 40 Este 0 -- -- 63
2019-03-21 04:00:00 14.2 33 Este 46 Este 0 -- -- 67
2019-03-21 03:00:00 14.2 37 Este 48 Este 0 -- -- 65
2019-03-21 02:00:00 14.3 41 Este 50 Este 0 -- -- 70
2019-03-21 01:00:00 11.9 17 Norte 45 Este 1.8 -- -- 87
2019-03-21 00:00:00 13 28 Nordeste 52 Este 3.2 -- -- 79
2019-03-20 23:00:00 14.6 36 Este 44 Este 0 -- -- 65
2019-03-20 22:00:00 14.7 31 Este 40 Este 0 -- -- 68
2019-03-20 21:00:00 14.8 32 Este 40 Nordeste 0 -- -- 63
2019-03-20 20:00:00 14.8 29 Este 36 Este 0 -- -- 68
2019-03-20 19:00:00 15 28 Este 35 Este 0 -- -- 68
2019-03-20 18:00:00 15.7 27 Este 33 Este 0 -- -- 63
2019-03-20 17:00:00 15.9 29 Este 35 Este 0 -- -- 60
2019-03-20 16:00:00 15.7 30 Este 35 Este 0 -- -- 64
2019-03-20 15:00:00 15.8 29 Este 37 Este 0 -- -- 64
2019-03-20 14:00:00 15.9 29 Este 37 Este 0 -- -- 63
2019-03-20 13:00:00 16.3 29 Este 36 Nordeste 0 -- -- 64
2019-03-20 12:00:00 15.3 28 Este 39 Este 0 -- -- 64
2019-03-20 11:00:00 15 31 Este 38 Este 0 -- -- 62
2019-03-20 10:00:00 15.3 30 Este 36 Este 0 -- -- 65
2019-03-20 09:00:00 15.1 28 Este 36 Este 0 -- -- 67
2019-03-20 08:00:00 14.7 28 Este 34 Este 0 -- -- 68
2019-03-20 07:00:00 14.7 24 Este 31 Este 0 -- -- 67
2019-03-20 06:00:00 14.7 26 Este 34 Este 0 -- -- 68
2019-03-20 05:00:00 14.9 27 Este 35 Este 0 -- -- 69
2019-03-20 04:00:00 14.9 30 Este 37 Este 0 -- -- 71
2019-03-20 03:00:00 15.2 31 Este 42 Este 0 -- -- 70
2019-03-20 02:00:00 15.2 34 Este 42 Este 0 -- -- 77
2019-03-20 01:00:00 15 31 Nordeste 42 Este 0 -- -- 72
2019-03-20 00:00:00 15.1 37 Este 42 Este 0 -- -- 81
2019-03-19 23:00:00 15.9 27 Este 32 Este 0 -- -- 78
2019-03-19 22:00:00 15.9 28 Este 32 Este 0 -- -- 78
2019-03-19 21:00:00 16.1 26 Este 29 Este 0 -- -- 77
2019-03-19 20:00:00 16.1 19 Este 23 Este 0 -- -- 77
2019-03-19 19:00:00 17.9 3 Sudoeste 14 Sudoeste 0 -- -- 69
2019-03-19 18:00:00 17.4 14 Sudoeste 20 Sudoeste 0 -- -- 75
2019-03-19 17:00:00 17.2 16 Sudoeste 20 Sudoeste 0 -- -- 73
2019-03-19 16:00:00 17 15 Sudoeste 18 Sudoeste 0 -- -- 74
2019-03-19 15:00:00 16.7 13 Sudoeste 15 Sudoeste 0 -- -- 74
2019-03-19 14:00:00 17.2 10 Sur 14 Sudeste 0 -- -- 70
2019-03-19 13:00:00 16.9 12 Sudeste 19 Este 0 -- -- 71
2019-03-19 12:00:00 16.5 15 Este 18 Este 0 -- -- 75
2019-03-19 11:00:00 16.7 16 Este 18 Este 0 -- -- 75
2019-03-19 10:00:00 16.8 14 Este 16 Este 0 -- -- 74
2019-03-19 09:00:00 15.3 8 Nordeste 14 Nordeste 0 -- -- 80
2019-03-19 08:00:00 14.9 9 Nordeste 14 Nordeste 0 -- -- 84
2019-03-19 07:00:00 15 10 Nordeste 22 Este 0 -- -- 82
2019-03-19 06:00:00 15.3 18 Nordeste 22 Nordeste 0 -- -- 78
2019-03-19 05:00:00 15.4 19 Nordeste 25 Este 0 -- -- 80
2019-03-19 04:00:00 15.5 22 Este 25 Este 0 -- -- 79
2019-03-19 03:00:00 15.5 22 Este 30 Este 0 -- -- 81
2019-03-19 02:00:00 15.7 22 Este 26 Este 0 -- -- 81
2019-03-19 01:00:00 15.7 18 Este 24 Este 0 -- -- 82
2019-03-19 00:00:00 15.7 19 Este 22 Este 0 -- -- 82